Betancuria — EAMH — position and weather

sailwx.info

Track history (hours):
 
Tides and Currents Weather Stations Pressure Air Temp Water Temp Dewpoint Dewpoint Depression Visibility Wind Speed Wind Dir Waves Ship Positions

Betancuria

Last reported at 2015-Jan-27 23:32 UTC. Time now 2015-Jan-28 20:20 UTC.
Position N 43°40' W 006°12'.

Length 141 m; draft 4.7 m.

Type: Ship. MMSI: 224471000.

Date/timePositionNaut miles runAvg speedWind from/ knotsBaromVisibWave heightAir tempDewpointWater temp
2015-Jan-27 23:32N 43°40' W 006°12'  
2015-Jan-25 09:26N 43°39' W 005°58'6 6.7
2015-Jan-25 08:33N 43°42' W 005°50'10 9.6
2015-Jan-25 07:33N 43°41' W 005°37'1211.6
2015-Jan-25 06:33N 43°40' W 005°21'1111.5
2015-Jan-25 05:33N 43°39' W 005°06'13611.3
2015-Jan-24 17:31N 43°33' W 001°59'1010.8
2015-Jan-24 16:33N 43°33' W 001°44'9 8.8
2015-Jan-24 15:33N 43°32' W 001°32'2 2.2
2015-Jan-24 14:32N 43°31' W 001°30'0 0.0
2015-Jan-24 13:32N 43°31' W 001°30'0 0.0
2015-Jan-24 12:32N 43°31' W 001°30'0 0.0
2015-Jan-24 11:32N 43°31' W 001°30'0 0.0
2015-Jan-24 10:32N 43°31' W 001°30'0 0.0
2015-Jan-24 09:32N 43°31' W 001°30'0 0.0
2015-Jan-24 08:32N 43°31' W 001°30'0 0.0
2015-Jan-24 07:32N 43°31' W 001°30'0 0.0
2015-Jan-24 06:32N 43°31' W 001°30'0 0.0
2015-Jan-24 05:32N 43°31' W 001°30'0 0.0
2015-Jan-24 04:32N 43°31' W 001°30'0 0.0
2015-Jan-24 03:32N 43°31' W 001°30'0 0.0
2015-Jan-24 02:29N 43°31' W 001°30'0 0.0
2015-Jan-24 01:32N 43°31' W 001°30'0 0.0
2015-Jan-24 00:32N 43°31' W 001°30'0 0.0
2015-Jan-23 23:32N 43°31' W 001°30'0 0.0
2015-Jan-23 22:32N 43°31' W 001°30'0 0.0
2015-Jan-23 21:32N 43°31' W 001°30'0 0.0
2015-Jan-23 20:32N 43°31' W 001°30'0 0.0
2015-Jan-23 19:32N 43°31' W 001°30'0 0.0
2015-Jan-23 18:32N 43°31' W 001°30'1 1.2
2015-Jan-23 17:31N 43°32' W 001°31'0 0.0
2015-Jan-23 16:28N 43°32' W 001°31'0 0.0
2015-Jan-23 15:16N 43°32' W 001°31'0 0.0
2015-Jan-23 13:10N 43°32' W 001°31'0 0.0
2015-Jan-23 12:22N 43°32' W 001°31'0 0.0
2015-Jan-23 11:22N 43°32' W 001°31'0 0.0
2015-Jan-23 10:25N 43°32' W 001°31'0 0.0
2015-Jan-23 09:34N 43°32' W 001°31'0 0.0
2015-Jan-23 08:31N 43°32' W 001°31'0 0.0
2015-Jan-23 06:25N 43°32' W 001°31'0 0.0
2015-Jan-22 21:07N 43°32' W 001°31'1 0.3
2015-Jan-22 17:33N 43°32' W 001°32'3 2.4
2015-Jan-22 16:31N 43°34' W 001°34'0 0.0
2015-Jan-22 15:31N 43°34' W 001°34'0 0.0
2015-Jan-22 14:31N 43°34' W 001°34'0 0.0
2015-Jan-22 13:31N 43°34' W 001°34'0 0.0
2015-Jan-22 12:31N 43°34' W 001°34'0 0.0
2015-Jan-22 11:31N 43°34' W 001°34'1 1.4
2015-Jan-22 10:33N 43°33' W 001°36'1010.1
2015-Jan-22 09:33N 43°28' W 001°48'9 8.7
2015-Jan-22 08:32N 43°21' W 001°56'0 0.0
2015-Jan-20 14:32N 43°21' W 001°56'  
Track history (hours):
 
Tides and Currents Weather Stations Pressure Air Temp Water Temp Dewpoint Dewpoint Depression Visibility Wind Speed Wind Dir Waves Ship Positions

Betancuria

Last reported at 2015-Jan-27 23:32 UTC. Time now 2015-Jan-28 20:20 UTC.
Position N 43°40' W 006°12'.

Length 141 m; draft 4.7 m.

Type: Ship. MMSI: 224471000.

Date/timePositionNaut miles runAvg speedWind from/ knotsBaromVisibWave heightAir tempDewpointWater temp
2015-Jan-27 23:32N 43°40' W 006°12'  
2015-Jan-25 09:26N 43°39' W 005°58'6 6.7
2015-Jan-25 08:33N 43°42' W 005°50'10 9.6
2015-Jan-25 07:33N 43°41' W 005°37'1211.6
2015-Jan-25 06:33N 43°40' W 005°21'1111.5
2015-Jan-25 05:33N 43°39' W 005°06'13611.3
2015-Jan-24 17:31N 43°33' W 001°59'1010.8
2015-Jan-24 16:33N 43°33' W 001°44'9 8.8
2015-Jan-24 15:33N 43°32' W 001°32'2 2.2
2015-Jan-24 14:32N 43°31' W 001°30'0 0.0
2015-Jan-24 13:32N 43°31' W 001°30'0 0.0
2015-Jan-24 12:32N 43°31' W 001°30'0 0.0
2015-Jan-24 11:32N 43°31' W 001°30'0 0.0
2015-Jan-24 10:32N 43°31' W 001°30'0 0.0
2015-Jan-24 09:32N 43°31' W 001°30'0 0.0
2015-Jan-24 08:32N 43°31' W 001°30'0 0.0
2015-Jan-24 07:32N 43°31' W 001°30'0 0.0
2015-Jan-24 06:32N 43°31' W 001°30'0 0.0
2015-Jan-24 05:32N 43°31' W 001°30'0 0.0
2015-Jan-24 04:32N 43°31' W 001°30'0 0.0
2015-Jan-24 03:32N 43°31' W 001°30'0 0.0
2015-Jan-24 02:29N 43°31' W 001°30'0 0.0
2015-Jan-24 01:32N 43°31' W 001°30'0 0.0
2015-Jan-24 00:32N 43°31' W 001°30'0 0.0
2015-Jan-23 23:32N 43°31' W 001°30'0 0.0
2015-Jan-23 22:32N 43°31' W 001°30'0 0.0
2015-Jan-23 21:32N 43°31' W 001°30'0 0.0
2015-Jan-23 20:32N 43°31' W 001°30'0 0.0
2015-Jan-23 19:32N 43°31' W 001°30'0 0.0
2015-Jan-23 18:32N 43°31' W 001°30'1 1.2
2015-Jan-23 17:31N 43°32' W 001°31'0 0.0
2015-Jan-23 16:28N 43°32' W 001°31'0 0.0
2015-Jan-23 15:16N 43°32' W 001°31'0 0.0
2015-Jan-23 13:10N 43°32' W 001°31'0 0.0
2015-Jan-23 12:22N 43°32' W 001°31'0 0.0
2015-Jan-23 11:22N 43°32' W 001°31'0 0.0
2015-Jan-23 10:25N 43°32' W 001°31'0 0.0
2015-Jan-23 09:34N 43°32' W 001°31'0 0.0
2015-Jan-23 08:31N 43°32' W 001°31'0 0.0
2015-Jan-23 06:25N 43°32' W 001°31'0 0.0
2015-Jan-22 21:07N 43°32' W 001°31'1 0.3
2015-Jan-22 17:33N 43°32' W 001°32'3 2.4
2015-Jan-22 16:31N 43°34' W 001°34'0 0.0
2015-Jan-22 15:31N 43°34' W 001°34'0 0.0
2015-Jan-22 14:31N 43°34' W 001°34'0 0.0
2015-Jan-22 13:31N 43°34' W 001°34'0 0.0
2015-Jan-22 12:31N 43°34' W 001°34'0 0.0
2015-Jan-22 11:31N 43°34' W 001°34'1 1.4
2015-Jan-22 10:33N 43°33' W 001°36'1010.1
2015-Jan-22 09:33N 43°28' W 001°48'9 8.7
2015-Jan-22 08:32N 43°21' W 001°56'0 0.0
2015-Jan-20 14:32N 43°21' W 001°56'  

Dump ship's entire track history